createdAt,value
2019-04-16T00:01:57.993Z,9.70
2019-04-16T00:04:53.715Z,9.80
2019-04-16T00:08:00.288Z,9.80
2019-04-16T00:10:50.805Z,10.97
2019-04-16T00:13:29.542Z,10.07
2019-04-16T00:15:59.445Z,10.37
2019-04-16T00:18:28.519Z,10.67
2019-04-16T00:21:34.596Z,9.37
2019-04-16T00:24:21.068Z,13.07
2019-04-16T00:26:57.799Z,9.20
2019-04-16T00:29:23.830Z,10.37
2019-04-16T00:32:11.904Z,9.77
2019-04-16T00:34:44.567Z,9.67
2019-04-16T00:37:11.684Z,10.23
2019-04-16T00:39:40.757Z,13.53
2019-04-16T00:42:09.925Z,10.67
2019-04-16T00:44:39.132Z,10.77
2019-04-16T00:47:08.332Z,11.60
2019-04-16T00:49:38.067Z,10.67
2019-04-16T00:52:07.443Z,10.97
2019-04-16T00:54:36.531Z,11.03
2019-04-16T00:57:05.632Z,10.30
2019-04-16T00:59:34.822Z,9.60
2019-04-16T01:02:04.209Z,10.10
2019-04-16T01:04:33.368Z,11.00
2019-04-16T01:07:02.518Z,11.67
2019-04-16T01:09:31.632Z,11.63
2019-04-16T01:12:00.838Z,10.50
2019-04-16T01:14:29.920Z,10.37
2019-04-16T01:17:03.897Z,10.97
2019-04-16T01:19:29.915Z,12.33
2019-04-16T01:21:59.056Z,10.83
2019-04-16T01:24:28.206Z,12.33
2019-04-16T01:26:58.210Z,10.90
2019-04-16T01:29:28.241Z,11.20
2019-04-16T01:32:28.400Z,10.70
2019-04-16T01:35:19.799Z,11.50
2019-04-16T01:38:06.339Z,12.97
2019-04-16T01:40:41.697Z,10.57
2019-04-16T01:43:10.802Z,12.50
2019-04-16T01:45:40.000Z,10.23
2019-04-16T01:48:09.101Z,13.77
2019-04-16T01:50:38.232Z,12.40
2019-04-16T01:53:07.361Z,10.80
2019-04-16T01:55:36.460Z,10.27
2019-04-16T01:58:05.611Z,12.10
2019-04-16T02:00:36.498Z,12.17
2019-04-16T02:03:05.683Z,12.97
2019-04-16T02:05:34.833Z,11.13
2019-04-16T02:08:03.910Z,11.07
2019-04-16T02:10:35.515Z,11.93
2019-04-16T02:13:04.370Z,11.17
2019-04-16T02:15:33.525Z,11.23
2019-04-16T02:18:02.744Z,11.20
2019-04-16T02:20:31.837Z,11.07
2019-04-16T02:23:01.149Z,14.23
2019-04-16T02:25:30.328Z,11.50
2019-04-16T02:27:59.443Z,10.63
2019-04-16T02:30:28.653Z,10.77
2019-04-16T02:32:57.755Z,11.30
2019-04-16T02:35:26.938Z,13.97
2019-04-16T02:37:56.084Z,12.70
2019-04-16T02:40:25.161Z,13.67
2019-04-16T02:42:54.307Z,11.37
2019-04-16T02:45:24.499Z,12.30
2019-04-16T02:47:53.673Z,11.30
2019-04-16T02:50:31.908Z,12.80
2019-04-16T02:53:24.512Z,11.33
2019-04-16T02:56:04.117Z,12.67
2019-04-16T02:58:38.114Z,12.57
2019-04-16T03:01:28.778Z,10.97
2019-04-16T03:04:02.863Z,11.83
2019-04-16T03:06:32.616Z,11.73
2019-04-16T03:09:01.948Z,11.93
2019-04-16T03:11:31.091Z,11.27
2019-04-16T03:14:00.210Z,11.87
2019-04-16T03:16:46.835Z,14.30
2019-04-16T03:19:20.654Z,11.73
2019-04-16T03:21:49.835Z,14.87
2019-04-16T03:24:19.104Z,13.23
2019-04-16T03:30:17.108Z,13.47
2019-04-16T03:32:52.514Z,12.43
2019-04-16T03:35:25.356Z,12.33
2019-04-16T03:37:52.477Z,13.40
2019-04-16T03:40:24.658Z,13.43
2019-04-16T03:42:52.438Z,11.53
2019-04-16T03:45:21.565Z,11.13
2019-04-16T03:47:52.134Z,12.70
2019-04-16T03:50:21.657Z,10.97
2019-04-16T03:52:50.784Z,11.37
2019-04-16T03:55:25.010Z,14.20
2019-04-16T03:57:50.778Z,12.10
2019-04-16T04:00:19.837Z,11.13
2019-04-16T04:02:54.155Z,11.03
2019-04-16T04:05:19.840Z,12.03
2019-04-16T04:07:48.935Z,14.47
2019-04-16T04:10:29.920Z,14.70
2019-04-16T04:12:48.918Z,10.70
2019-04-16T04:15:18.032Z,10.73
2019-04-16T04:17:47.505Z,11.13
2019-04-16T04:20:18.158Z,13.27
2019-04-16T04:22:47.373Z,13.30
2019-04-16T04:25:16.858Z,15.33
2019-04-16T04:27:46.750Z,12.20
2019-04-16T04:30:18.921Z,11.93
2019-04-16T04:32:48.035Z,13.10
2019-04-16T04:35:20.602Z,15.80
2019-04-16T04:37:47.994Z,11.33
2019-04-16T04:40:17.622Z,12.00
2019-04-16T04:42:46.896Z,13.70
2019-04-16T04:45:16.038Z,11.03
2019-04-16T04:47:45.138Z,13.70
2019-04-16T04:50:14.879Z,12.17
2019-04-16T04:52:46.903Z,12.00
2019-04-16T04:55:16.040Z,10.47
2019-04-16T04:57:45.166Z,10.97
2019-04-16T05:00:14.257Z,12.27
2019-04-16T05:02:44.345Z,10.73
2019-04-16T05:05:41.679Z,13.13
2019-04-16T05:08:10.819Z,12.20
2019-04-16T05:10:43.314Z,11.97
2019-04-16T05:13:10.845Z,12.40
2019-04-16T05:15:39.984Z,11.90
2019-04-16T05:18:10.810Z,14.63
2019-04-16T05:20:39.980Z,15.07
2019-04-16T05:23:09.166Z,12.67
2019-04-16T05:25:38.264Z,13.13
2019-04-16T05:28:11.578Z,12.97
2019-04-16T05:30:38.128Z,15.90
2019-04-16T05:33:07.236Z,17.50
2019-04-16T05:35:38.588Z,15.27
2019-04-16T05:38:07.058Z,11.13
2019-04-16T05:40:36.126Z,13.97
2019-04-16T05:43:05.291Z,11.30
2019-04-16T05:45:37.048Z,11.87
2019-04-16T05:48:05.279Z,12.90
2019-04-16T05:50:34.407Z,11.90
2019-04-16T05:53:05.437Z,11.43
2019-04-16T05:55:59.470Z,13.60
2019-04-16T05:58:30.855Z,11.53
2019-04-16T06:01:22.574Z,12.43
2019-04-16T06:03:54.277Z,12.30
2019-04-16T06:06:23.616Z,12.83
2019-04-16T06:08:56.167Z,12.53
2019-04-16T06:11:29.609Z,14.60
2019-04-16T06:14:03.385Z,12.70
2019-04-16T06:16:53.351Z,12.87
2019-04-16T06:19:32.818Z,11.47
2019-04-16T06:22:29.565Z,14.20
2019-04-16T06:25:09.419Z,12.27
2019-04-16T06:27:54.417Z,13.50
2019-04-16T06:30:48.545Z,12.10
2019-04-16T06:33:21.856Z,12.23
2019-04-16T06:36:09.877Z,12.53
2019-04-16T06:38:48.772Z,12.63
2019-04-16T06:41:47.760Z,11.83
2019-04-16T06:44:18.218Z,13.80
2019-04-16T06:47:10.520Z,14.43
2019-04-16T06:49:48.233Z,14.00
2019-04-16T06:52:35.240Z,14.10
2019-04-16T06:55:13.303Z,12.83
2019-04-16T06:58:01.459Z,13.43
2019-04-16T07:00:52.626Z,13.53
2019-04-16T07:03:59.974Z,15.27
2019-04-16T07:07:07.814Z,14.20
2019-04-16T07:09:42.316Z,13.50
2019-04-16T07:12:23.254Z,13.43
2019-04-16T07:14:53.719Z,13.60
2019-04-16T07:17:23.118Z,13.53
2019-04-16T07:19:55.145Z,14.07
2019-04-16T07:22:24.598Z,14.30
2019-04-16T07:24:57.564Z,13.50
2019-04-16T07:27:37.786Z,13.43
2019-04-16T07:30:25.582Z,15.80
2019-04-16T07:33:04.461Z,13.17
2019-04-16T07:35:49.663Z,13.93
2019-04-16T07:38:40.848Z,13.33
2019-04-16T07:41:20.310Z,14.30
2019-04-16T07:44:23.603Z,14.50
2019-04-16T07:47:10.265Z,14.17
2019-04-16T07:49:45.676Z,17.20
2019-04-16T07:52:42.803Z,15.33
2019-04-16T07:55:33.935Z,14.90
2019-04-16T07:58:03.138Z,14.50
2019-04-16T08:00:32.237Z,14.73
2019-04-16T08:03:01.373Z,16.23
2019-04-16T08:05:30.451Z,16.43
2019-04-16T08:07:59.537Z,14.53
2019-04-16T08:10:29.369Z,14.80
2019-04-16T08:13:06.736Z,15.03
2019-04-16T08:15:35.920Z,16.23
2019-04-16T08:18:05.298Z,15.37
2019-04-16T08:20:38.053Z,16.37
2019-04-16T08:23:26.652Z,15.57
2019-04-16T08:26:03.524Z,15.13
2019-04-16T08:28:27.568Z,15.77
2019-04-16T08:30:56.689Z,15.87
2019-04-16T08:33:28.557Z,15.97
2019-04-16T08:35:57.753Z,16.03
2019-04-16T08:38:34.106Z,17.60
2019-04-16T08:41:01.105Z,15.83
2019-04-16T08:43:30.677Z,17.00
2019-04-16T08:46:00.248Z,16.80
2019-04-16T08:48:30.325Z,16.47
2019-04-16T08:51:00.305Z,15.80
2019-04-16T08:53:30.248Z,15.90
2019-04-16T08:55:59.632Z,16.30
2019-04-16T08:58:29.216Z,17.77
2019-04-16T09:00:58.685Z,15.80
2019-04-16T09:03:30.075Z,15.37
2019-04-16T09:05:59.547Z,15.07
2019-04-16T09:08:46.871Z,15.60
2019-04-16T09:11:23.258Z,15.60
2019-04-16T09:13:51.896Z,15.60
2019-04-16T09:16:21.277Z,16.63
2019-04-16T09:19:15.789Z,15.43
2019-04-16T09:21:45.021Z,16.17
2019-04-16T09:24:22.274Z,16.57
2019-04-16T09:27:03.912Z,18.20
2019-04-16T09:30:05.265Z,15.07
2019-04-16T09:32:51.793Z,14.90
2019-04-16T09:35:45.020Z,15.53
2019-04-16T09:38:38.848Z,14.20
2019-04-16T09:41:28.314Z,15.85
2019-04-16T09:44:00.965Z,15.07
2019-04-16T09:46:50.581Z,13.73
2019-04-16T09:49:04.913Z,14.40
2019-04-16T09:51:32.735Z,14.18
2019-04-16T09:54:02.027Z,13.43
2019-04-16T09:56:32.313Z,14.13
2019-04-16T09:59:11.049Z,14.90
2019-04-16T10:01:51.530Z,13.73
2019-04-16T10:04:21.332Z,14.93
2019-04-16T10:06:50.517Z,15.77
2019-04-16T10:09:22.333Z,15.40
2019-04-16T10:11:51.589Z,15.10
2019-04-16T10:14:20.751Z,15.25
2019-04-16T10:16:49.918Z,15.83
2019-04-16T10:19:21.267Z,16.90
2019-04-16T10:21:53.137Z,15.72
2019-04-16T10:24:49.569Z,16.02
2019-04-16T10:27:34.591Z,17.23
2019-04-16T10:30:05.909Z,15.72
2019-04-16T10:32:35.739Z,15.93
2019-04-16T10:35:06.702Z,16.17
2019-04-16T10:37:36.231Z,15.10
2019-04-16T10:40:25.211Z,15.95
2019-04-16T10:43:26.121Z,16.27
2019-04-16T10:46:10.432Z,15.32
2019-04-16T10:49:16.079Z,15.55
2019-04-16T10:52:37.538Z,13.45
2019-04-16T10:55:50.720Z,15.05
2019-04-16T10:58:57.547Z,14.80
2019-04-16T11:02:17.748Z,13.95
2019-04-16T11:05:15.384Z,16.20
2019-04-16T11:08:07.382Z,15.72
2019-04-16T11:11:03.901Z,13.62
2019-04-16T11:13:39.679Z,14.85
2019-04-16T11:16:14.676Z,14.25
2019-04-16T11:18:54.873Z,15.43
2019-04-16T11:21:28.950Z,12.43
2019-04-16T11:23:58.299Z,13.85
2019-04-16T11:26:27.754Z,14.55
2019-04-16T11:28:57.184Z,14.93
2019-04-16T11:31:29.410Z,15.08
2019-04-16T11:33:58.808Z,14.20
2019-04-16T11:36:30.898Z,14.95
2019-04-16T11:38:58.971Z,14.20
2019-04-16T11:41:28.346Z,13.60
2019-04-16T11:43:57.672Z,13.45
2019-04-16T11:46:27.113Z,14.23
2019-04-16T11:48:56.371Z,14.35
2019-04-16T11:51:25.472Z,13.53
2019-04-16T11:53:54.551Z,13.87
2019-04-16T11:56:23.873Z,14.47
2019-04-16T11:58:53.078Z,14.63
2019-04-16T12:01:50.351Z,13.67
2019-04-16T12:04:37.554Z,13.40
2019-04-16T12:07:21.424Z,13.30
2019-04-16T12:10:06.095Z,12.87
2019-04-16T12:13:04.322Z,13.67
2019-04-16T12:16:08.374Z,13.00
2019-04-16T12:19:05.628Z,11.67
2019-04-16T12:21:52.267Z,12.33
2019-04-16T12:24:46.577Z,12.07
2019-04-16T12:27:33.471Z,11.97
2019-04-16T12:30:15.702Z,11.80
2019-04-16T12:33:08.751Z,12.37
2019-04-16T12:35:41.234Z,13.07
2019-04-16T12:38:27.525Z,13.07
2019-04-16T12:41:14.185Z,12.33
2019-04-16T12:43:52.319Z,12.57
2019-04-16T12:46:46.499Z,12.80
2019-04-16T12:49:20.666Z,11.00
2019-04-16T12:51:56.957Z,12.17
2019-04-16T12:54:37.951Z,11.57
2019-04-16T12:57:29.078Z,12.13
2019-04-16T13:00:13.212Z,10.67
2019-04-16T13:02:51.638Z,10.87
2019-04-16T13:05:44.561Z,11.80
2019-04-16T13:08:44.346Z,8.40
2019-04-16T13:11:31.969Z,8.13
2019-04-16T13:14:32.965Z,8.57
2019-04-16T13:17:19.552Z,8.07
2019-04-16T13:19:57.802Z,7.97
2019-04-16T13:22:30.829Z,8.70
2019-04-16T13:25:06.546Z,7.90
2019-04-16T13:27:37.814Z,8.50
2019-04-16T13:30:08.595Z,8.83
2019-04-16T13:32:37.756Z,9.43
2019-04-16T13:35:07.163Z,8.57
2019-04-16T13:37:37.847Z,9.03
2019-04-16T13:40:11.672Z,9.77
2019-04-16T13:42:40.867Z,10.73
2019-04-16T13:45:41.317Z,8.13
2019-04-16T13:48:28.521Z,8.50
2019-04-16T13:51:01.085Z,8.13
2019-04-16T13:53:47.713Z,10.40
2019-04-16T13:56:38.805Z,8.40
2019-04-16T13:59:31.109Z,7.90
2019-04-16T14:02:37.285Z,9.03
2019-04-16T14:05:10.055Z,10.17
2019-04-16T14:07:37.396Z,10.23
2019-04-16T14:10:06.713Z,10.07
2019-04-16T14:12:42.096Z,11.07
2019-04-16T14:15:08.402Z,10.43
2019-04-16T14:17:51.940Z,10.10
2019-04-16T14:20:12.123Z,9.03
2019-04-16T14:22:39.469Z,9.00
2019-04-16T14:25:08.898Z,8.87
2019-04-16T14:27:38.210Z,9.83
2019-04-16T14:30:13.381Z,9.77
2019-04-16T14:32:42.724Z,10.60
2019-04-16T14:35:32.346Z,10.70
2019-04-16T14:37:49.155Z,9.33
2019-04-16T14:40:25.391Z,10.07
2019-04-16T14:42:57.466Z,11.23
2019-04-16T14:45:34.745Z,10.33
2019-04-16T14:48:07.909Z,10.83
2019-04-16T14:50:33.431Z,10.17
2019-04-16T14:53:02.941Z,9.87
2019-04-16T14:55:43.633Z,10.90
2019-04-16T14:58:31.864Z,10.57
2019-04-16T15:01:28.902Z,10.03
2019-04-16T15:04:29.003Z,10.43
2019-04-16T15:07:13.381Z,10.80
2019-04-16T15:10:04.453Z,11.40
2019-04-16T15:12:43.981Z,10.20
2019-04-16T15:15:32.127Z,10.80
2019-04-16T15:18:26.592Z,9.93
2019-04-16T15:21:12.543Z,9.87
2019-04-16T15:24:03.685Z,9.90
2019-04-16T15:26:58.254Z,10.87
2019-04-16T15:29:45.233Z,10.50
2019-04-16T15:32:39.454Z,11.33
2019-04-16T15:35:13.874Z,10.77
2019-04-16T15:37:59.713Z,9.70
2019-04-16T15:40:40.347Z,9.63
2019-04-16T15:43:31.822Z,9.20
2019-04-16T15:46:26.096Z,9.63
2019-04-16T15:49:08.349Z,9.63
2019-04-16T15:51:51.502Z,9.03
2019-04-16T15:54:34.589Z,10.53
2019-04-16T15:57:28.777Z,9.47
2019-04-16T16:00:17.077Z,10.00
2019-04-16T16:03:04.249Z,9.87
2019-04-16T16:05:45.938Z,8.70
2019-04-16T16:08:23.354Z,9.70
2019-04-16T16:10:56.196Z,7.73
2019-04-16T16:13:26.411Z,8.50
2019-04-16T16:15:56.791Z,8.57
2019-04-16T16:18:26.074Z,9.10
2019-04-16T16:20:55.376Z,8.77
2019-04-16T16:23:26.189Z,8.77
2019-04-16T16:25:56.209Z,9.13
2019-04-16T16:28:25.605Z,8.00
2019-04-16T16:30:55.038Z,10.53
2019-04-16T16:33:24.605Z,9.00
2019-04-16T16:35:58.653Z,9.43
2019-04-16T16:38:25.330Z,8.60
2019-04-16T16:40:54.419Z,8.80
2019-04-16T16:43:23.515Z,8.83
2019-04-16T16:46:00.247Z,9.30
2019-04-16T16:48:29.659Z,9.40
2019-04-16T16:50:59.373Z,8.67
2019-04-16T16:53:34.339Z,10.03
2019-04-16T16:56:13.563Z,8.63
2019-04-16T16:58:58.845Z,7.87
2019-04-16T17:01:59.051Z,9.13
2019-04-16T17:04:31.407Z,21.07
2019-04-16T17:07:00.916Z,9.90
2019-04-16T17:09:31.684Z,9.30
2019-04-16T17:12:00.908Z,11.97
2019-04-16T17:14:30.018Z,6.43
2019-04-16T17:17:11.830Z,6.47
2019-04-16T17:19:29.916Z,7.50
2019-04-16T17:21:58.956Z,13.20
2019-04-16T17:24:28.167Z,11.43
2019-04-16T17:26:57.200Z,7.97
2019-04-16T17:29:26.238Z,11.73
2019-04-16T17:31:55.711Z,8.70
2019-04-16T17:34:24.856Z,10.90
2019-04-16T17:36:53.908Z,9.97
2019-04-16T17:39:42.635Z,7.87
2019-04-16T17:42:11.857Z,8.50
2019-04-16T17:44:49.114Z,9.77
2019-04-16T17:47:49.206Z,8.80
2019-04-16T17:50:39.366Z,9.73
2019-04-16T17:53:19.542Z,9.23
2019-04-16T17:56:07.631Z,8.30
2019-04-16T17:58:50.265Z,8.57
2019-04-16T18:01:47.289Z,10.13
2019-04-16T18:04:38.386Z,68.20
2019-04-16T18:07:35.557Z,7.33
2019-04-16T18:10:27.126Z,16.93
2019-04-16T18:13:06.866Z,4.60
2019-04-16T18:15:45.980Z,5.87
2019-04-16T18:18:36.602Z,8.33
2019-04-16T18:21:21.784Z,7.67
2019-04-16T18:24:02.539Z,7.63
2019-04-16T18:26:42.582Z,7.77
2019-04-16T18:29:16.668Z,9.40
2019-04-16T18:32:05.015Z,8.00
2019-04-16T18:34:48.567Z,8.10
2019-04-16T18:37:36.611Z,7.47
2019-04-16T18:40:25.035Z,7.90
2019-04-16T18:43:16.103Z,7.40
2019-04-16T18:46:02.960Z,7.30
2019-04-16T18:48:33.694Z,5.93
2019-04-16T18:51:02.868Z,6.60
2019-04-16T18:53:32.487Z,7.10
2019-04-16T18:56:01.613Z,5.60
2019-04-16T18:58:30.686Z,4.57
2019-04-16T19:01:04.323Z,5.23
2019-04-16T19:03:33.442Z,4.60
2019-04-16T19:06:02.966Z,5.07
2019-04-16T19:08:41.732Z,4.67
2019-04-16T19:11:03.172Z,4.20
2019-04-16T19:13:32.289Z,3.60
2019-04-16T19:16:01.442Z,3.90
2019-04-16T19:18:30.487Z,3.77
2019-04-16T19:20:59.753Z,3.33
2019-04-16T19:23:28.903Z,3.90
2019-04-16T19:25:58.177Z,4.03
2019-04-16T19:28:27.708Z,5.47
2019-04-16T19:30:56.954Z,3.63
2019-04-16T19:33:26.040Z,3.63
2019-04-16T19:35:55.106Z,3.87
2019-04-16T19:38:24.191Z,3.77
2019-04-16T19:40:53.246Z,4.67
2019-04-16T19:43:22.355Z,4.47
2019-04-16T19:45:51.589Z,3.80
2019-04-16T19:48:34.708Z,5.30
2019-04-16T19:50:51.648Z,4.03
2019-04-16T19:53:20.830Z,3.97
2019-04-16T19:55:49.963Z,4.53
2019-04-16T19:58:19.138Z,4.37
2019-04-16T20:00:48.345Z,4.43
2019-04-16T20:03:17.477Z,4.07
2019-04-16T20:05:46.668Z,3.93
2019-04-16T20:08:15.843Z,4.83
2019-04-16T20:10:48.545Z,4.43
2019-04-16T20:13:15.902Z,3.90
2019-04-16T20:15:45.131Z,4.60
2019-04-16T20:18:14.346Z,5.30
2019-04-16T20:20:43.461Z,4.87
2019-04-16T20:23:12.623Z,4.53
2019-04-16T20:25:41.743Z,5.17
2019-04-16T20:28:15.301Z,5.40
2019-04-16T20:30:41.697Z,4.03
2019-04-16T20:33:10.816Z,4.77
2019-04-16T20:35:39.868Z,3.70
2019-04-16T20:38:08.955Z,4.87
2019-04-16T20:40:38.058Z,4.40
2019-04-16T20:43:07.219Z,4.40
2019-04-16T20:45:36.308Z,5.03
2019-04-16T20:48:05.510Z,5.90
2019-04-16T20:50:34.647Z,4.07
2019-04-16T20:53:07.346Z,5.33
2019-04-16T20:55:34.596Z,5.03
2019-04-16T20:58:03.770Z,5.17
2019-04-16T21:00:34.980Z,7.03
2019-04-16T21:03:04.061Z,8.20
2019-04-16T21:05:35.740Z,5.80
2019-04-16T21:08:04.089Z,6.43
2019-04-16T21:10:35.699Z,5.83
2019-04-16T21:13:04.062Z,6.17
2019-04-16T21:15:33.107Z,6.27
2019-04-16T21:18:02.146Z,5.87
2019-04-16T21:20:31.236Z,6.90
2019-04-16T21:23:01.537Z,6.63
2019-04-16T21:25:31.170Z,6.93
2019-04-16T21:28:17.137Z,6.03
2019-04-16T21:30:47.367Z,6.93
2019-04-16T21:33:26.165Z,6.23
2019-04-16T21:35:57.059Z,6.93
2019-04-16T21:38:48.129Z,6.03
2019-04-16T21:41:17.198Z,5.73
2019-04-16T21:43:46.245Z,3.80
2019-04-16T21:46:20.191Z,4.80
2019-04-16T21:48:46.154Z,4.87
2019-04-16T21:51:19.017Z,3.70
2019-04-16T21:53:46.070Z,4.43
2019-04-16T21:56:15.166Z,4.20
2019-04-16T21:58:46.621Z,4.50
2019-04-16T22:01:36.758Z,3.40
2019-04-16T22:04:13.213Z,3.67
2019-04-16T22:06:40.073Z,3.07
2019-04-16T22:09:09.192Z,3.13
2019-04-16T22:11:43.412Z,3.40
2019-04-16T22:14:09.077Z,3.50
2019-04-16T22:16:38.301Z,3.40
2019-04-16T22:19:07.393Z,3.87
2019-04-16T22:21:39.665Z,7.47
2019-04-16T22:24:07.500Z,4.10
2019-04-16T22:26:36.559Z,3.47
2019-04-16T22:29:06.242Z,3.67
2019-04-16T22:31:35.725Z,3.30
2019-04-16T22:34:04.827Z,3.73
2019-04-16T22:36:33.968Z,3.93
2019-04-16T22:39:08.155Z,2.93
2019-04-16T22:41:42.558Z,3.43
2019-04-16T22:44:39.693Z,3.23
2019-04-16T22:47:12.378Z,4.23
2019-04-16T22:49:41.436Z,4.43
2019-04-16T22:52:13.100Z,3.90
2019-04-16T22:54:42.392Z,5.10
2019-04-16T22:57:13.598Z,4.40
2019-04-16T22:59:42.691Z,3.50
2019-04-16T23:02:23.343Z,3.30
2019-04-16T23:04:54.800Z,3.27
2019-04-16T23:07:23.327Z,3.83
2019-04-16T23:09:52.503Z,3.67
2019-04-16T23:12:26.826Z,4.10
2019-04-16T23:14:52.691Z,4.03
2019-04-16T23:17:24.782Z,4.80
2019-04-16T23:19:54.745Z,4.53
2019-04-16T23:22:24.755Z,4.13
2019-04-16T23:24:55.428Z,3.60
2019-04-16T23:27:24.913Z,3.93
2019-04-16T23:29:54.102Z,4.50
2019-04-16T23:32:27.421Z,4.27
2019-04-16T23:34:54.326Z,4.50
2019-04-16T23:37:24.056Z,4.00
2019-04-16T23:39:53.282Z,4.17
2019-04-16T23:42:22.466Z,3.97
2019-04-16T23:45:09.406Z,3.67
2019-04-16T23:47:58.910Z,3.17
2019-04-16T23:50:56.749Z,2.47
2019-04-16T23:53:43.678Z,3.23
2019-04-16T23:56:24.556Z,3.17
2019-04-16T23:59:06.096Z,3.00
